createdAt,value
2019-05-11T00:01:23.078Z,97274.00
2019-05-11T00:05:24.126Z,97281.00
2019-05-11T00:09:25.013Z,97288.00
2019-05-11T00:13:25.924Z,97286.00
2019-05-11T00:17:27.294Z,97306.00
2019-05-11T00:21:29.590Z,97284.00
2019-05-11T00:25:31.714Z,97276.00
2019-05-11T00:29:32.855Z,97267.00
2019-05-11T00:33:33.873Z,97279.00
2019-05-11T00:37:34.832Z,97285.00
2019-05-11T00:41:35.796Z,97299.00
2019-05-11T00:45:36.687Z,97301.00
2019-05-11T00:49:37.593Z,97298.00
2019-05-11T00:53:38.486Z,97292.00
2019-05-11T00:57:39.361Z,97279.00
2019-05-11T01:01:40.312Z,97277.00
2019-05-11T01:05:41.393Z,97269.00
2019-05-11T01:09:42.277Z,97262.00
2019-05-11T01:13:43.211Z,97262.00
2019-05-11T01:17:44.107Z,97259.00
2019-05-11T01:21:45.092Z,97263.00
2019-05-11T01:25:46.090Z,97257.00
2019-05-11T01:29:46.942Z,97249.00
2019-05-11T01:33:47.846Z,97247.00
2019-05-11T01:37:48.782Z,97239.00
2019-05-11T01:41:49.683Z,97213.00
2019-05-11T01:45:50.640Z,97216.00
2019-05-11T01:49:51.530Z,97206.00
2019-05-11T01:53:52.615Z,97222.00
2019-05-11T01:57:53.500Z,97208.00
2019-05-11T02:01:54.373Z,97202.00
2019-05-11T02:05:55.264Z,97195.00
2019-05-11T02:09:56.233Z,97183.00
2019-05-11T02:13:57.141Z,97181.00
2019-05-11T02:17:58.131Z,97188.00
2019-05-11T02:21:59.001Z,97179.00
2019-05-11T02:25:59.870Z,97159.00
2019-05-11T02:30:00.792Z,97161.00
2019-05-11T02:34:01.860Z,97152.00
2019-05-11T02:38:02.834Z,97159.00
2019-05-11T02:42:03.707Z,97149.00
2019-05-11T02:46:04.778Z,97142.00
2019-05-11T02:50:06.125Z,97147.00
2019-05-11T02:54:07.440Z,97133.00
2019-05-11T02:58:08.396Z,97131.00
2019-05-11T03:02:09.293Z,97118.00
2019-05-11T03:06:10.261Z,97116.00
2019-05-11T03:10:11.678Z,97116.00
2019-05-11T03:14:12.547Z,97111.00
2019-05-11T03:18:13.521Z,97109.00
2019-05-11T03:22:14.438Z,97103.00
2019-05-11T03:26:15.384Z,97108.00
2019-05-11T03:30:16.574Z,97106.00
2019-05-11T03:34:17.421Z,97088.00
2019-05-11T03:38:18.482Z,97090.00
2019-05-11T03:42:19.356Z,97078.00
2019-05-11T03:46:20.258Z,97053.00
2019-05-11T03:50:21.220Z,97042.00
2019-05-11T03:54:22.084Z,97042.00
2019-05-11T03:58:26.306Z,97032.00
2019-05-11T04:02:25.881Z,97036.00
2019-05-11T04:06:26.964Z,97033.00
2019-05-11T04:10:27.843Z,97029.00
2019-05-11T04:14:28.748Z,97036.00
2019-05-11T04:18:29.727Z,97030.00
2019-05-11T04:22:30.692Z,97033.00
2019-05-11T04:26:31.570Z,97035.00
2019-05-11T04:30:32.421Z,97028.00
2019-05-11T04:34:33.302Z,97036.00
2019-05-11T04:38:34.281Z,97036.00
2019-05-11T04:42:53.289Z,97038.00
2019-05-11T04:46:38.072Z,97015.00
2019-05-11T04:50:39.213Z,97015.00
2019-05-11T04:54:40.096Z,97000.00
2019-05-11T04:58:41.060Z,97006.00
2019-05-11T05:02:41.976Z,97008.00
2019-05-11T05:06:42.834Z,97013.00
2019-05-11T05:10:43.737Z,97018.00
2019-05-11T05:14:44.631Z,96991.00
2019-05-11T05:18:45.612Z,96975.00
2019-05-11T05:22:46.572Z,96981.00
2019-05-11T05:26:47.434Z,96993.00
2019-05-11T05:30:48.309Z,96997.00
2019-05-11T05:34:49.310Z,97000.00
2019-05-11T05:38:50.180Z,97013.00
2019-05-11T05:42:51.106Z,97020.00
2019-05-11T05:46:52.357Z,97008.00
2019-05-11T05:50:53.253Z,97009.00
2019-05-11T05:54:54.353Z,97003.00
2019-05-11T05:58:55.520Z,96998.00
2019-05-11T06:02:56.505Z,96991.00
2019-05-11T06:06:57.392Z,96998.00
2019-05-11T06:10:58.446Z,96982.00
2019-05-11T06:14:59.330Z,96952.00
2019-05-11T06:19:00.204Z,96936.00
2019-05-11T06:23:01.091Z,96935.00
2019-05-11T06:27:02.005Z,96936.00
2019-05-11T06:31:03.023Z,96963.00
2019-05-11T06:35:06.266Z,96958.00
2019-05-11T06:39:07.669Z,96958.00
2019-05-11T06:43:08.564Z,96973.00
2019-05-11T06:47:09.603Z,96986.00
2019-05-11T06:51:10.468Z,96975.00
2019-05-11T06:55:11.656Z,96962.00
2019-05-11T06:59:12.633Z,96971.00
2019-05-11T07:03:13.624Z,96975.00
2019-05-11T07:07:14.540Z,96975.00
2019-05-11T07:11:15.515Z,96976.00
2019-05-11T07:15:16.598Z,96974.00
2019-05-11T07:19:17.611Z,96980.00
2019-05-11T07:23:18.699Z,96974.00
2019-05-11T07:27:19.610Z,96956.00
2019-05-11T07:31:23.897Z,96968.00
2019-05-11T07:35:24.850Z,96972.00
2019-05-11T07:39:27.915Z,96968.00
2019-05-11T07:43:28.936Z,96978.00
2019-05-11T07:47:29.803Z,96979.00
2019-05-11T07:51:30.667Z,96987.00
2019-05-11T07:55:31.570Z,96974.00
2019-05-11T07:59:32.465Z,96983.00
2019-05-11T08:03:33.349Z,96984.00
2019-05-11T08:07:34.232Z,96987.00
2019-05-11T08:11:35.146Z,96981.00
2019-05-11T08:15:38.276Z,96987.00
2019-05-11T08:19:38.899Z,96979.00
2019-05-11T08:23:39.778Z,96970.00
2019-05-11T08:27:40.690Z,97004.00
2019-05-11T08:31:41.572Z,96982.00
2019-05-11T08:35:42.667Z,96981.00
2019-05-11T08:39:43.658Z,96978.00
2019-05-11T08:43:44.524Z,96973.00
2019-05-11T08:47:45.424Z,96982.00
2019-05-11T08:51:47.829Z,96984.00
2019-05-11T08:55:49.003Z,96987.00
2019-05-11T08:59:49.968Z,96989.00
2019-05-11T09:03:51.002Z,97004.00
2019-05-11T09:07:52.092Z,96993.00
2019-05-11T09:11:53.094Z,97017.00
2019-05-11T09:15:54.095Z,97020.00
2019-05-11T09:19:55.056Z,97035.00
2019-05-11T09:23:57.871Z,97018.00
2019-05-11T09:27:58.931Z,97047.00
2019-05-11T09:31:59.949Z,97054.00
2019-05-11T09:36:00.822Z,97063.00
2019-05-11T09:40:02.244Z,97068.00
2019-05-11T09:44:03.357Z,97085.00
2019-05-11T09:48:04.497Z,97085.00
2019-05-11T09:52:07.723Z,97089.00
2019-05-11T09:56:08.614Z,97094.00
2019-05-11T10:00:11.199Z,97081.00
2019-05-11T10:04:12.138Z,97090.00
2019-05-11T10:08:13.010Z,97090.00
2019-05-11T10:12:14.014Z,97098.00
2019-05-11T10:16:15.012Z,97111.00
2019-05-11T10:20:18.164Z,97128.00
2019-05-11T10:24:18.903Z,97128.00
2019-05-11T10:28:19.871Z,97143.00
2019-05-11T10:32:21.107Z,97155.00
2019-05-11T10:36:22.187Z,97162.00
2019-05-11T10:40:25.114Z,97172.00
2019-05-11T10:44:28.073Z,97174.00
2019-05-11T10:48:28.977Z,97177.00
2019-05-11T10:52:30.299Z,97167.00
2019-05-11T10:56:31.227Z,97184.00
2019-05-11T11:00:32.298Z,97188.00
2019-05-11T11:04:33.372Z,97185.00
2019-05-11T11:08:34.537Z,97170.00
2019-05-11T11:12:38.306Z,97181.00
2019-05-11T11:16:42.690Z,97190.00
2019-05-11T11:20:41.913Z,97190.00
2019-05-11T11:24:42.895Z,97187.00
2019-05-11T11:28:43.980Z,97202.00
2019-05-11T11:32:45.355Z,97201.00
2019-05-11T11:36:48.167Z,97199.00
2019-05-11T11:40:49.158Z,97224.00
2019-05-11T11:44:50.573Z,97229.00
2019-05-11T11:48:51.614Z,97241.00
2019-05-11T11:52:52.513Z,97245.00
2019-05-11T11:56:53.570Z,97243.00
2019-05-11T12:00:54.568Z,97263.00
2019-05-11T12:04:57.637Z,97276.00
2019-05-11T12:08:58.624Z,97267.00
2019-05-11T12:12:59.613Z,97290.00
2019-05-11T12:17:06.949Z,97288.00
2019-05-11T12:21:08.059Z,97319.00
2019-05-11T12:25:09.511Z,97318.00
2019-05-11T12:29:10.402Z,97326.00
2019-05-11T12:33:11.401Z,97339.00
2019-05-11T12:37:12.358Z,97343.00
2019-05-11T12:41:13.511Z,97362.00
2019-05-11T12:45:14.786Z,97357.00
2019-05-11T12:49:18.458Z,97359.00
2019-05-11T12:53:18.778Z,97366.00
2019-05-11T12:57:19.728Z,97373.00
2019-05-11T13:01:20.743Z,97382.00
2019-05-11T13:05:21.831Z,97377.00
2019-05-11T13:09:22.977Z,97396.00
2019-05-11T13:13:23.953Z,97404.00
2019-05-11T13:17:34.905Z,97402.00
2019-05-11T13:21:28.658Z,97428.00
2019-05-11T13:25:29.753Z,97438.00
2019-05-11T13:29:30.750Z,97445.00
2019-05-11T13:33:31.629Z,97448.00
2019-05-11T13:37:32.636Z,97452.00
2019-05-11T13:41:33.544Z,97484.00
2019-05-11T13:45:34.436Z,97483.00
2019-05-11T13:49:37.638Z,97479.00
2019-05-11T13:53:38.491Z,97495.00
2019-05-11T13:57:40.307Z,97493.00
2019-05-11T14:01:41.340Z,97504.00
2019-05-11T14:05:42.356Z,97510.00
2019-05-11T14:09:43.455Z,97511.00
2019-05-11T14:13:44.340Z,97514.00
2019-05-11T14:17:45.227Z,97520.00
2019-05-11T14:21:48.793Z,97539.00
2019-05-11T14:25:49.045Z,97536.00
2019-05-11T14:29:50.289Z,97554.00
2019-05-11T14:33:51.297Z,97559.00
2019-05-11T14:37:52.300Z,97559.00
2019-05-11T14:41:53.418Z,97577.00
2019-05-11T14:45:54.517Z,97574.00
2019-05-11T14:49:57.845Z,97573.00
2019-05-11T14:53:59.475Z,97569.00
2019-05-11T14:58:00.571Z,97581.00
2019-05-11T15:02:03.310Z,97602.00
2019-05-11T15:06:04.298Z,97605.00
2019-05-11T15:10:08.042Z,97621.00
2019-05-11T15:14:09.385Z,97626.00
2019-05-11T15:18:10.372Z,97634.00
2019-05-11T15:22:11.545Z,97645.00
2019-05-11T15:26:12.453Z,97649.00
2019-05-11T15:30:14.511Z,97679.00
2019-05-11T15:34:15.543Z,97681.00
2019-05-11T15:38:17.910Z,97693.00
2019-05-11T15:42:20.025Z,97695.00
2019-05-11T15:46:21.207Z,97706.00
2019-05-11T15:50:22.326Z,97704.00
2019-05-11T15:54:23.419Z,97728.00
2019-05-11T15:58:24.434Z,97732.00
2019-05-11T16:02:25.641Z,97742.00
2019-05-11T16:06:28.353Z,97751.00
2019-05-11T16:10:29.455Z,97761.00
2019-05-11T16:14:30.444Z,97781.00
2019-05-11T16:18:31.600Z,97782.00
2019-05-11T16:22:32.495Z,97791.00
2019-05-11T16:26:33.485Z,97812.00
2019-05-11T16:30:34.471Z,97811.00
2019-05-11T16:34:38.047Z,97803.00
2019-05-11T16:38:38.614Z,97810.00
2019-05-11T16:42:39.516Z,97811.00
2019-05-11T16:46:40.393Z,97812.00
2019-05-11T16:50:41.357Z,97820.00
2019-05-11T16:54:42.374Z,97827.00
2019-05-11T16:58:43.448Z,97849.00
2019-05-11T17:02:44.374Z,97861.00
2019-05-11T17:06:45.207Z,97880.00
2019-05-11T17:10:59.065Z,97892.00
2019-05-11T17:14:59.671Z,97905.00
2019-05-11T17:19:00.670Z,97901.00
2019-05-11T17:23:01.705Z,97907.00
2019-05-11T17:27:02.755Z,97920.00
2019-05-11T17:31:03.816Z,97940.00
2019-05-11T17:35:08.286Z,97960.00
2019-05-11T17:39:09.088Z,97966.00
2019-05-11T17:43:10.074Z,97987.00
2019-05-11T17:47:11.254Z,97991.00
2019-05-11T17:51:21.085Z,97981.00
2019-05-11T17:55:15.186Z,97994.00
2019-05-11T17:59:16.121Z,97996.00
2019-05-11T18:03:17.200Z,98003.00
2019-05-11T18:07:27.178Z,98013.00
2019-05-11T18:11:21.220Z,98015.00
2019-05-11T18:15:22.111Z,98022.00
2019-05-11T18:19:22.980Z,98029.00
2019-05-11T18:23:23.963Z,98042.00
2019-05-11T18:27:24.854Z,98044.00
2019-05-11T18:31:25.888Z,98060.00
2019-05-11T18:35:27.865Z,98066.00
2019-05-11T18:39:29.075Z,98077.00
2019-05-11T18:43:30.357Z,98076.00
2019-05-11T18:47:31.265Z,98090.00
2019-05-11T18:51:32.188Z,98107.00
2019-05-11T18:55:33.600Z,98100.00
2019-05-11T18:59:34.673Z,98125.00
2019-05-11T19:03:35.525Z,98139.00
2019-05-11T19:07:38.772Z,98157.00
2019-05-11T19:11:42.651Z,98153.00
2019-05-11T19:15:42.802Z,98159.00
2019-05-11T19:19:43.913Z,98177.00
2019-05-11T19:23:44.839Z,98194.00
2019-05-11T19:27:50.179Z,98201.00
2019-05-11T19:31:48.832Z,98228.00
2019-05-11T19:35:49.809Z,98224.00
2019-05-11T19:39:50.907Z,98230.00
2019-05-11T19:43:52.069Z,98230.00
2019-05-11T19:47:53.052Z,98247.00
2019-05-11T19:51:53.938Z,98253.00
2019-05-11T19:55:55.018Z,98257.00
2019-05-11T19:59:58.244Z,98287.00
2019-05-11T20:03:58.720Z,98266.00
2019-05-11T20:07:59.774Z,98270.00
2019-05-11T20:12:01.035Z,98273.00
2019-05-11T20:16:02.325Z,98279.00
2019-05-11T20:20:08.921Z,98280.00
2019-05-11T20:24:09.524Z,98285.00
2019-05-11T20:28:10.397Z,98288.00
2019-05-11T20:32:11.678Z,98297.00
2019-05-11T20:36:12.850Z,98297.00
2019-05-11T20:40:14.028Z,98296.00
2019-05-11T20:44:14.904Z,98309.00
2019-05-11T20:48:18.325Z,98310.00
2019-05-11T20:52:18.814Z,98309.00
2019-05-11T20:56:19.898Z,98317.00
2019-05-11T21:00:21.593Z,98323.00
2019-05-11T21:04:22.498Z,98316.00
2019-05-11T21:08:23.595Z,98315.00
2019-05-11T21:12:24.504Z,98318.00
2019-05-11T21:16:25.393Z,98320.00
2019-05-11T21:20:28.522Z,98333.00
2019-05-11T21:24:29.102Z,98337.00
2019-05-11T21:28:30.690Z,98345.00
2019-05-11T21:32:31.825Z,98336.00
2019-05-11T21:36:32.679Z,98345.00
2019-05-11T21:40:33.589Z,98343.00
2019-05-11T21:44:34.488Z,98348.00
2019-05-11T21:48:35.401Z,98368.00
2019-05-11T21:52:38.429Z,98372.00
2019-05-11T21:56:40.929Z,98380.00
2019-05-11T22:00:43.278Z,98388.00
2019-05-11T22:04:44.253Z,98388.00
2019-05-11T22:08:48.288Z,98387.00
2019-05-11T22:12:49.264Z,98398.00
2019-05-11T22:16:50.151Z,98402.00
2019-05-11T22:20:51.043Z,98410.00
2019-05-11T22:24:52.069Z,98421.00
2019-05-11T22:28:52.943Z,98412.00
2019-05-11T22:32:53.843Z,98414.00
2019-05-11T22:36:54.739Z,98418.00
2019-05-11T22:40:58.128Z,98434.00
2019-05-11T22:44:58.527Z,98438.00
2019-05-11T22:48:59.491Z,98450.00
2019-05-11T22:53:00.372Z,98455.00
2019-05-11T22:57:01.272Z,98463.00
2019-05-11T23:01:02.510Z,98463.00
2019-05-11T23:05:08.179Z,98494.00
2019-05-11T23:09:08.700Z,98487.00
2019-05-11T23:13:11.493Z,98486.00
2019-05-11T23:17:12.475Z,98488.00
2019-05-11T23:21:13.407Z,98500.00
2019-05-11T23:25:14.727Z,98499.00
2019-05-11T23:29:15.930Z,98503.00
2019-05-11T23:33:18.439Z,98505.00
2019-05-11T23:37:19.701Z,98505.00
2019-05-11T23:41:24.594Z,98516.00
2019-05-11T23:45:23.469Z,98517.00
2019-05-11T23:49:24.337Z,98539.00
2019-05-11T23:53:25.363Z,98535.00
2019-05-11T23:57:26.331Z,98538.00
